Time;durP1;ratioP1;P1;durP2;ratioP2;P2;SDS_P1;SDS_P2;PMS_P1;PMS_P2;Temp;Humidity;BMP_temperature;BMP_pressure;BME280_temperature;BME280_humidity;BME280_pressure;Samples;Min_cycle;Max_cycle;Signal;HPM_P1;HPM_P2
2023/09/17 00:01:59;;;;;;;7.25;5.57;;;13.60;99.90;;;;;;5010124;28;20030;-61
2023/09/17 00:04:24;;;;;;;8.35;5.65;;;13.70;99.90;;;;;;5008150;28;20048;-62
2023/09/17 00:06:50;;;;;;;7.20;5.15;;;13.60;99.90;;;;;;5011578;28;20026;-61
2023/09/17 00:09:17;;;;;;;7.00;5.30;;;13.60;99.90;;;;;;5010745;28;20029;-61
2023/09/17 00:11:43;;;;;;;6.10;5.10;;;13.60;99.90;;;;;;5013041;28;20386;-62
2023/09/17 00:14:08;;;;;;;7.30;5.18;;;13.60;99.90;;;;;;5018652;28;20036;-60
2023/09/17 00:16:34;;;;;;;6.60;5.25;;;13.50;99.90;;;;;;5023838;28;20049;-62
2023/09/17 00:19:00;;;;;;;5.65;4.93;;;13.50;99.90;;;;;;5013919;28;20109;-62
2023/09/17 00:21:26;;;;;;;7.50;5.20;;;13.50;99.90;;;;;;5015855;28;20041;-62
2023/09/17 00:23:51;;;;;;;6.65;5.35;;;13.50;99.90;;;;;;5020678;28;20105;-63
2023/09/17 00:26:17;;;;;;;6.38;5.38;;;13.50;99.90;;;;;;5018019;28;20032;-62
2023/09/17 00:28:42;;;;;;;7.18;5.22;;;13.40;99.90;;;;;;5015709;28;20088;-61
2023/09/17 00:31:08;;;;;;;9.77;5.90;;;13.40;99.90;;;;;;5015640;28;20476;-62
2023/09/17 00:33:33;;;;;;;6.85;5.53;;;13.40;99.90;;;;;;5014001;28;20117;-62
2023/09/17 00:35:59;;;;;;;8.90;5.43;;;13.30;99.90;;;;;;5015637;28;20022;-62
2023/09/17 00:38:24;;;;;;;6.07;4.93;;;13.30;99.90;;;;;;5015040;28;20520;-61
2023/09/17 00:40:50;;;;;;;6.50;5.22;;;13.30;99.90;;;;;;5012900;28;20022;-61
2023/09/17 00:43:15;;;;;;;9.02;5.78;;;13.30;99.90;;;;;;5015839;28;20025;-62
2023/09/17 00:45:42;;;;;;;9.57;6.65;;;13.30;99.90;;;;;;5013607;28;20037;-62
2023/09/17 00:48:09;;;;;;;7.03;5.63;;;13.30;99.90;;;;;;5014424;28;20176;-62
2023/09/17 00:50:35;;;;;;;8.38;6.63;;;13.30;99.90;;;;;;5016864;28;20037;-62
2023/09/17 00:53:01;;;;;;;6.55;5.30;;;13.20;99.90;;;;;;5022227;28;20037;-62
2023/09/17 00:55:29;;;;;;;8.10;5.57;;;13.20;99.90;;;;;;5021764;28;20072;-62
2023/09/17 00:57:56;;;;;;;8.60;6.13;;;13.20;99.90;;;;;;5023589;28;20172;-61
2023/09/17 01:00:23;;;;;;;9.25;5.72;;;13.20;99.90;;;;;;5027809;28;20075;-62
2023/09/17 01:02:48;;;;;;;8.90;6.30;;;13.20;99.90;;;;;;5023412;28;20018;-61
2023/09/17 01:05:14;;;;;;;8.27;6.40;;;13.10;99.90;;;;;;5021225;28;20040;-62
2023/09/17 01:07:40;;;;;;;10.32;6.22;;;13.10;99.90;;;;;;5021361;28;20022;-61
2023/09/17 01:10:08;;;;;;;8.20;5.47;;;13.10;99.90;;;;;;5021141;28;20056;-62
2023/09/17 01:12:34;;;;;;;6.45;5.75;;;13.10;99.90;;;;;;5021180;28;20029;-62
2023/09/17 01:15:01;;;;;;;7.97;5.60;;;13.10;99.90;;;;;;5019694;28;20032;-62
2023/09/17 01:17:27;;;;;;;6.60;5.38;;;13.10;99.90;;;;;;5021002;28;20021;-61
2023/09/17 01:19:54;;;;;;;8.48;5.97;;;13.10;99.90;;;;;;5015817;28;20497;-61
2023/09/17 01:22:26;;;;;;;8.88;5.22;;;13.10;99.90;;;;;;5016882;28;20025;-62
2023/09/17 01:25:22;;;;;;;8.98;5.60;;;13.10;99.90;;;;;;5013195;28;20036;-61
2023/09/17 01:27:48;;;;;;;8.95;5.68;;;13.10;99.90;;;;;;5012375;28;20362;-62
2023/09/17 01:30:17;;;;;;;6.53;5.10;;;13.00;99.90;;;;;;5014883;28;20199;-62
2023/09/17 01:32:43;;;;;;;8.45;5.93;;;13.00;99.90;;;;;;5011841;28;20057;-63
2023/09/17 01:35:11;;;;;;;8.40;5.68;;;13.00;99.90;;;;;;5012849;28;20030;-62
2023/09/17 01:37:39;;;;;;;7.15;5.43;;;13.00;99.90;;;;;;5012122;28;20030;-62
2023/09/17 01:40:14;;;;;;;7.57;5.45;;;13.00;99.90;;;;;;5012073;28;20421;-61
2023/09/17 01:42:43;;;;;;;6.53;5.30;;;13.00;99.90;;;;;;5009403;28;20029;-62
2023/09/17 01:45:16;;;;;;;7.00;5.72;;;12.90;99.90;;;;;;5012826;28;20056;-62
2023/09/17 01:47:47;;;;;;;8.05;5.53;;;13.00;99.90;;;;;;5017343;28;20104;-62
2023/09/17 01:50:15;;;;;;;6.95;5.72;;;12.90;99.90;;;;;;5017037;28;20068;-62
2023/09/17 01:52:43;;;;;;;6.95;5.30;;;12.90;99.90;;;;;;5015380;28;20025;-62
2023/09/17 01:55:08;;;;;;;9.00;5.40;;;12.90;99.90;;;;;;5015847;28;20071;-63
2023/09/17 01:57:34;;;;;;;5.97;5.13;;;12.90;99.90;;;;;;5015603;28;20029;-61
2023/09/17 02:00:00;;;;;;;7.80;6.20;;;12.90;99.90;;;;;;5010354;28;20536;-62
2023/09/17 02:02:26;;;;;;;8.07;5.97;;;12.90;99.90;;;;;;5017126;28;20079;-62
2023/09/17 02:04:52;;;;;;;6.28;5.60;;;12.80;99.90;;;;;;5014869;28;20029;-61
2023/09/17 02:07:17;;;;;;;7.18;5.57;;;12.90;99.90;;;;;;5008570;28;20038;-61
2023/09/17 02:09:43;;;;;;;8.90;5.70;;;12.80;99.90;;;;;;5012691;28;20432;-61
2023/09/17 02:12:09;;;;;;;7.60;5.93;;;12.80;99.90;;;;;;5012041;28;20076;-62
2023/09/17 02:14:34;;;;;;;7.45;6.00;;;12.80;99.90;;;;;;5023763;28;20076;-49
2023/09/17 02:17:00;;;;;;;7.22;5.47;;;12.80;99.90;;;;;;5017833;28;20025;-48
2023/09/17 02:19:25;;;;;;;7.18;5.47;;;12.80;99.90;;;;;;5009828;28;20054;-48
2023/09/17 02:21:52;;;;;;;8.55;6.18;;;12.80;99.90;;;;;;5012831;28;20022;-51
2023/09/17 02:24:19;;;;;;;7.10;5.85;;;12.80;99.90;;;;;;5018231;28;20095;-60
2023/09/17 02:26:45;;;;;;;8.63;5.95;;;12.70;99.90;;;;;;5024021;28;20130;-59
2023/09/17 02:29:11;;;;;;;9.43;6.03;;;12.70;99.90;;;;;;5012765;28;20026;-59
2023/09/17 02:31:37;;;;;;;8.15;6.13;;;12.70;99.90;;;;;;5011665;28;20048;-60
2023/09/17 02:34:03;;;;;;;7.75;5.32;;;12.60;99.90;;;;;;5019049;28;24145;-60
2023/09/17 02:36:28;;;;;;;9.90;5.80;;;12.60;99.90;;;;;;5020338;28;20053;-60
2023/09/17 02:38:54;;;;;;;7.45;6.15;;;12.70;99.90;;;;;;5016758;28;20540;-59
2023/09/17 02:41:19;;;;;;;8.52;6.68;;;12.60;99.90;;;;;;5018016;28;20398;-59
2023/09/17 02:43:45;;;;;;;6.93;5.57;;;12.60;99.90;;;;;;5014578;28;20026;-60
2023/09/17 02:46:11;;;;;;;8.23;5.50;;;12.60;99.90;;;;;;5019083;28;20037;-60
2023/09/17 02:48:36;;;;;;;10.30;5.95;;;12.60;99.90;;;;;;5020343;28;20096;-60
2023/09/17 02:51:02;;;;;;;6.95;5.65;;;12.60;99.90;;;;;;5018382;28;20116;-60
2023/09/17 02:53:28;;;;;;;10.82;6.85;;;12.60;99.90;;;;;;5013648;28;20029;-59
2023/09/17 02:55:57;;;;;;;8.00;6.30;;;12.50;99.90;;;;;;5017139;28;20024;-50
2023/09/17 02:58:23;;;;;;;7.53;6.00;;;12.50;99.90;;;;;;5011454;28;20099;-53
2023/09/17 03:00:49;;;;;;;10.63;5.63;;;12.50;99.90;;;;;;5008598;28;20022;-56
2023/09/17 03:03:15;;;;;;;6.93;5.10;;;12.50;99.90;;;;;;5013757;28;20032;-54
2023/09/17 03:05:43;;;;;;;8.10;6.18;;;12.50;99.90;;;;;;5013759;28;20497;-56
2023/09/17 03:08:09;;;;;;;9.45;5.97;;;12.50;99.90;;;;;;5009602;28;20044;-56
2023/09/17 03:10:41;;;;;;;9.07;6.22;;;12.50;99.90;;;;;;5012452;28;20026;-54
2023/09/17 03:13:09;;;;;;;8.15;5.90;;;12.50;99.90;;;;;;5015434;28;20049;-57
2023/09/17 03:15:34;;;;;;;8.93;5.65;;;12.40;99.90;;;;;;5014102;28;20513;-58
2023/09/17 03:18:00;;;;;;;9.15;5.38;;;12.40;99.90;;;;;;5015367;28;20034;-54
2023/09/17 03:20:27;;;;;;;9.90;6.38;;;12.40;99.90;;;;;;5025346;28;20061;-56
2023/09/17 03:22:53;;;;;;;7.50;5.20;;;12.40;99.90;;;;;;5016784;28;20029;-58
2023/09/17 03:25:19;;;;;;;6.25;5.40;;;12.40;99.90;;;;;;5013633;28;20025;-57
2023/09/17 03:27:45;;;;;;;8.32;5.90;;;12.40;99.90;;;;;;5015767;28;20030;-56
2023/09/17 03:30:11;;;;;;;7.90;6.00;;;12.40;99.90;;;;;;5017390;28;20048;-55
2023/09/17 03:32:37;;;;;;;7.60;5.60;;;12.40;99.90;;;;;;5023316;28;20124;-57
2023/09/17 03:35:04;;;;;;;8.13;5.85;;;12.40;99.90;;;;;;5016262;28;20076;-56
2023/09/17 03:37:30;;;;;;;13.65;5.75;;;12.40;99.90;;;;;;5019192;28;20016;-56
2023/09/17 03:40:10;;;;;;;7.30;5.57;;;12.40;99.90;;;;;;5019531;28;20482;-58
2023/09/17 03:42:37;;;;;;;7.40;6.15;;;12.40;99.90;;;;;;5016896;28;20030;-54
2023/09/17 03:45:05;;;;;;;9.43;7.20;;;12.40;99.90;;;;;;5026815;28;20026;-54
2023/09/17 03:47:32;;;;;;;9.52;7.25;;;12.40;99.90;;;;;;5016968;28;20029;-54
2023/09/17 03:49:57;;;;;;;7.60;5.68;;;12.40;99.90;;;;;;5015163;28;20385;-54
2023/09/17 03:52:23;;;;;;;7.22;5.88;;;12.40;99.90;;;;;;5018979;28;20033;-56
2023/09/17 03:54:49;;;;;;;9.18;5.88;;;12.30;99.90;;;;;;5016844;28;20089;-58
2023/09/17 03:57:14;;;;;;;9.35;6.13;;;12.30;99.90;;;;;;5016934;28;20675;-56
2023/09/17 03:59:40;;;;;;;7.75;6.05;;;12.30;99.90;;;;;;5014866;28;20030;-55
2023/09/17 04:02:05;;;;;;;9.23;6.15;;;12.30;99.90;;;;;;5018442;28;20026;-55
2023/09/17 04:04:31;;;;;;;8.43;6.03;;;12.30;99.90;;;;;;5020702;28;20048;-54
2023/09/17 04:06:58;;;;;;;6.80;5.80;;;12.20;99.90;;;;;;5014552;28;20096;-56
2023/09/17 04:09:25;;;;;;;7.18;6.03;;;12.30;99.90;;;;;;5016567;28;20036;-57
2023/09/17 04:11:50;;;;;;;8.57;6.13;;;12.30;99.90;;;;;;5016698;28;20496;-55
2023/09/17 04:14:16;;;;;;;6.32;5.40;;;12.20;99.90;;;;;;5014262;28;20083;-54
2023/09/17 04:16:41;;;;;;;7.20;5.78;;;12.20;99.90;;;;;;5018568;28;20022;-56
2023/09/17 04:19:07;;;;;;;9.32;5.97;;;12.20;99.90;;;;;;5020199;28;20029;-56
2023/09/17 04:21:32;;;;;;;7.70;6.05;;;12.20;99.90;;;;;;5014398;28;20025;-57
2023/09/17 04:23:58;;;;;;;9.02;5.80;;;12.20;99.90;;;;;;5021939;28;20042;-56
2023/09/17 04:26:24;;;;;;;9.57;6.97;;;12.20;99.90;;;;;;5017071;28;20029;-56
2023/09/17 04:28:49;;;;;;;11.55;6.82;;;12.20;99.90;;;;;;5015495;28;20017;-53
2023/09/17 04:31:15;;;;;;;7.22;5.82;;;12.20;99.90;;;;;;5013832;28;20478;-56
2023/09/17 04:33:41;;;;;;;8.57;5.90;;;12.20;99.90;;;;;;5019894;28;20017;-52
2023/09/17 04:36:06;;;;;;;7.72;5.40;;;12.20;99.90;;;;;;5013949;28;20036;-56
2023/09/17 04:38:32;;;;;;;8.45;6.07;;;12.10;99.90;;;;;;5015158;28;20131;-55
2023/09/17 04:40:57;;;;;;;9.23;6.55;;;12.20;99.90;;;;;;5012936;28;20037;-54
2023/09/17 04:43:23;;;;;;;8.52;6.32;;;12.10;99.90;;;;;;5015236;28;20107;-55
2023/09/17 04:45:49;;;;;;;8.02;5.88;;;12.10;99.90;;;;;;5012379;28;20184;-55
2023/09/17 04:48:16;;;;;;;7.45;5.88;;;12.20;99.90;;;;;;5019591;28;20029;-57
2023/09/17 04:50:43;;;;;;;8.73;6.25;;;12.20;99.90;;;;;;5013711;28;20114;-57
2023/09/17 04:53:10;;;;;;;7.50;6.18;;;12.20;99.90;;;;;;5014522;28;20030;-54
2023/09/17 04:55:36;;;;;;;8.20;6.30;;;12.20;99.90;;;;;;5016761;28;20032;-57
2023/09/17 04:58:02;;;;;;;8.35;6.47;;;12.20;99.90;;;;;;5020581;28;20112;-55
2023/09/17 05:00:27;;;;;;;8.27;5.63;;;12.30;99.90;;;;;;5010513;28;20091;-55
2023/09/17 05:02:53;;;;;;;9.68;5.72;;;12.30;99.90;;;;;;5021725;28;20022;-53
2023/09/17 05:05:19;;;;;;;7.72;5.85;;;12.30;99.90;;;;;;5015116;28;20440;-57
2023/09/17 05:07:46;;;;;;;7.97;5.88;;;12.30;99.90;;;;;;5018444;28;20049;-57
2023/09/17 05:10:12;;;;;;;6.90;5.72;;;12.40;99.90;;;;;;5016320;28;20022;-56
2023/09/17 05:12:38;;;;;;;7.50;5.70;;;12.40;99.90;;;;;;5013192;28;20025;-55
2023/09/17 05:15:04;;;;;;;8.45;5.82;;;12.40;99.90;;;;;;5016674;28;20426;-57
2023/09/17 05:17:29;;;;;;;8.85;5.93;;;12.40;99.90;;;;;;5016877;28;20037;-57
2023/09/17 05:19:55;;;;;;;8.48;6.30;;;12.50;99.90;;;;;;5017150;28;20052;-56
2023/09/17 05:22:21;;;;;;;8.77;6.57;;;12.50;99.90;;;;;;5026901;28;20029;-56
2023/09/17 05:24:46;;;;;;;9.55;6.30;;;12.50;99.90;;;;;;5018764;28;20037;-55
2023/09/17 05:27:12;;;;;;;6.82;5.88;;;12.60;99.90;;;;;;5017833;28;20036;-52
2023/09/17 05:29:37;;;;;;;7.43;5.78;;;12.60;99.90;;;;;;5017883;28;20489;-57
2023/09/17 05:32:03;;;;;;;9.43;6.10;;;12.70;99.90;;;;;;5011530;28;20121;-55
2023/09/17 05:34:29;;;;;;;7.53;6.18;;;12.90;99.90;;;;;;5014915;28;20068;-53
2023/09/17 05:36:54;;;;;;;6.53;5.40;;;13.40;99.90;;;;;;5018197;28;20061;-58
2023/09/17 05:39:19;;;;;;;8.70;5.50;;;14.20;99.90;;;;;;5011631;28;20466;-53
2023/09/17 05:41:45;;;;;;;4.90;4.10;;;14.90;99.90;;;;;;5015927;28;20067;-56
2023/09/17 05:44:11;;;;;;;6.43;4.45;;;15.60;99.90;;;;;;5017736;28;20057;-58
2023/09/17 05:46:36;;;;;;;6.00;4.88;;;16.20;99.90;;;;;;5020054;28;20104;-55
2023/09/17 05:49:01;;;;;;;6.22;4.22;;;16.80;99.90;;;;;;5011961;28;20026;-54
2023/09/17 05:51:27;;;;;;;6.95;4.45;;;17.60;99.90;;;;;;5017543;28;20027;-56
2023/09/17 05:53:53;;;;;;;5.32;4.03;;;18.40;99.90;;;;;;5013029;28;20525;-57
2023/09/17 05:56:18;;;;;;;8.30;4.28;;;19.20;99.90;;;;;;5015378;28;20067;-57
2023/09/17 05:58:44;;;;;;;4.97;4.30;;;19.90;97.60;;;;;;5015373;28;20018;-58
2023/09/17 06:01:09;;;;;;;5.18;3.58;;;20.50;96.70;;;;;;5015211;28;20033;-57
2023/09/17 06:03:35;;;;;;;4.35;3.55;;;21.10;92.50;;;;;;5014395;28;20389;-56
2023/09/17 06:06:02;;;;;;;4.07;3.55;;;21.70;92.40;;;;;;5016363;28;20096;-57
2023/09/17 06:08:28;;;;;;;7.10;3.65;;;22.40;91.50;;;;;;5012891;28;20036;-55
2023/09/17 06:10:55;;;;;;;4.57;3.50;;;23.10;90.60;;;;;;5018466;28;20025;-56
2023/09/17 06:13:20;;;;;;;4.38;3.80;;;23.60;88.90;;;;;;5016467;28;20022;-57
2023/09/17 06:15:46;;;;;;;5.03;4.30;;;23.80;86.80;;;;;;5019283;28;20547;-57
2023/09/17 06:18:11;;;;;;;3.90;3.50;;;24.10;85.90;;;;;;5010036;28;20026;-58
2023/09/17 06:20:39;;;;;;;4.55;3.80;;;24.40;83.80;;;;;;5012883;28;20032;-57
2023/09/17 06:23:04;;;;;;;4.82;3.83;;;24.60;83.40;;;;;;5013106;28;20029;-47
2023/09/17 06:25:31;;;;;;;3.75;3.45;;;24.60;82.10;;;;;;5010579;28;20038;-49
2023/09/17 06:27:56;;;;;;;4.05;3.67;;;24.60;81.90;;;;;;5012298;28;20021;-53
2023/09/17 06:30:22;;;;;;;4.13;3.65;;;24.70;81.50;;;;;;5017423;28;20033;-53
2023/09/17 06:32:47;;;;;;;3.72;3.33;;;25.30;80.00;;;;;;5009743;28;20627;-52
2023/09/17 06:35:13;;;;;;;3.60;3.17;;;25.90;78.00;;;;;;5016357;28;20041;-50
2023/09/17 06:37:38;;;;;;;4.65;3.72;;;26.40;77.10;;;;;;5016391;28;20041;-52
2023/09/17 06:40:05;;;;;;;4.30;3.80;;;27.00;75.70;;;;;;5010518;28;20104;-51
2023/09/17 06:42:31;;;;;;;4.35;3.88;;;27.40;73.70;;;;;;5017287;28;20018;-50
2023/09/17 06:44:56;;;;;;;4.03;3.63;;;27.70;71.70;;;;;;5009865;28;20371;-50
2023/09/17 06:47:22;;;;;;;5.70;3.72;;;28.00;70.50;;;;;;5014564;28;20053;-49
2023/09/17 06:49:47;;;;;;;4.53;4.03;;;28.10;68.30;;;;;;5011494;28;20014;-52
2023/09/17 06:52:13;;;;;;;4.72;4.10;;;27.90;68.00;;;;;;5010986;28;20124;-47
2023/09/17 06:54:38;;;;;;;5.00;4.45;;;27.60;61.00;;;;;;5014090;28;20088;-49
2023/09/17 06:57:04;;;;;;;6.78;4.45;;;26.80;66.00;;;;;;5018320;28;20543;-49
2023/09/17 06:59:29;;;;;;;5.90;4.60;;;26.40;64.60;;;;;;5012791;28;20017;-51
2023/09/17 07:01:55;;;;;;;6.00;4.72;;;25.70;65.30;;;;;;5012197;28;20028;-49
2023/09/17 07:04:20;;;;;;;5.07;4.40;;;25.70;66.50;;;;;;5010437;28;20026;-50
2023/09/17 07:06:46;;;;;;;5.20;4.70;;;26.00;65.20;;;;;;5016546;28;20218;-51
2023/09/17 07:09:13;;;;;;;4.78;3.97;;;26.30;65.90;;;;;;5018724;28;20054;-51
2023/09/17 07:11:38;;;;;;;7.28;4.95;;;26.20;64.60;;;;;;5012566;28;20051;-52
2023/09/17 07:14:09;;;;;;;5.20;4.50;;;25.70;64.60;;;;;;5010162;28;20033;-51
2023/09/17 07:16:35;;;;;;;6.45;4.40;;;25.50;65.60;;;;;;5016219;28;20418;-51
2023/09/17 07:19:01;;;;;;;5.30;4.50;;;25.40;65.70;;;;;;5018145;28;20044;-52
2023/09/17 07:21:26;;;;;;;4.60;3.90;;;25.60;65.80;;;;;;5010105;28;20022;-47
2023/09/17 07:23:52;;;;;;;4.68;4.18;;;25.80;64.30;;;;;;5016100;28;20498;-50
2023/09/17 07:26:20;;;;;;;5.85;4.13;;;26.10;64.90;;;;;;5018033;28;20025;-54
2023/09/17 07:28:45;;;;;;;5.00;4.50;;;26.50;64.20;;;;;;5016354;28;20640;-49
2023/09/17 07:31:12;;;;;;;4.47;3.97;;;26.90;63.90;;;;;;5013712;28;20792;-52
2023/09/17 07:33:39;;;;;;;4.53;4.13;;;27.30;62.60;;;;;;5009897;28;20037;-52
2023/09/17 07:36:05;;;;;;;4.72;3.72;;;27.50;62.10;;;;;;5017692;28;20084;-52
2023/09/17 07:38:31;;;;;;;3.97;3.60;;;27.50;61.70;;;;;;5012169;28;20022;-52
2023/09/17 07:40:56;;;;;;;3.90;3.53;;;27.70;62.20;;;;;;5019674;28;20032;-49
2023/09/17 07:43:22;;;;;;;3.67;3.38;;;27.60;61.30;;;;;;5011012;28;20064;-53
2023/09/17 07:45:47;;;;;;;4.88;3.75;;;27.60;61.80;;;;;;5011351;28;20477;-52
2023/09/17 07:48:12;;;;;;;4.43;3.83;;;27.70;61.30;;;;;;5015580;28;20056;-52
2023/09/17 07:50:40;;;;;;;4.55;3.90;;;27.60;61.00;;;;;;5012529;28;20576;-50
2023/09/17 07:53:06;;;;;;;4.82;4.32;;;27.40;59.20;;;;;;5014676;28;20091;-60
2023/09/17 07:55:31;;;;;;;6.18;4.00;;;27.10;59.70;;;;;;5020695;28;20025;-67
2023/09/17 07:57:57;;;;;;;4.45;4.05;;;27.10;60.20;;;;;;5016528;28;20071;-47
2023/09/17 08:00:22;;;;;;;6.90;4.18;;;27.10;60.60;;;;;;5015930;28;20884;-49
2023/09/17 08:02:48;;;;;;;5.47;4.45;;;27.30;64.30;;;;;;5025274;28;20188;-59
2023/09/17 08:05:14;;;;;;;33.22;6.60;;;27.50;64.30;;;;;;5023086;28;20029;-63
2023/09/17 08:07:40;;;;;;;4.30;3.97;;;27.10;64.50;;;;;;5015468;28;20061;-65
2023/09/17 08:10:07;;;;;;;5.97;4.35;;;26.90;68.00;;;;;;5015173;28;20057;-61
2023/09/17 08:12:32;;;;;;;5.47;4.07;;;26.50;68.10;;;;;;5018255;28;20025;-61
2023/09/17 08:14:58;;;;;;;4.07;3.47;;;26.30;67.00;;;;;;5012046;28;20032;-59
2023/09/17 08:17:24;;;;;;;4.93;4.28;;;26.40;66.00;;;;;;5013592;28;20030;-60
2023/09/17 08:19:49;;;;;;;4.57;4.03;;;26.70;63.90;;;;;;5015984;28;20025;-58
2023/09/17 08:22:15;;;;;;;5.47;4.38;;;26.40;62.80;;;;;;5017824;28;20191;-60
2023/09/17 08:24:41;;;;;;;6.53;4.97;;;26.20;62.40;;;;;;5022740;28;20024;-60
2023/09/17 08:27:06;;;;;;;6.20;4.53;;;26.10;61.60;;;;;;5016893;28;20020;-60
2023/09/17 08:29:33;;;;;;;6.60;4.60;;;25.80;62.90;;;;;;5015059;28;20045;-61
2023/09/17 08:31:59;;;;;;;4.78;4.25;;;25.80;62.60;;;;;;5022004;28;20042;-60
2023/09/17 08:34:25;;;;;;;4.93;4.38;;;25.80;62.30;;;;;;5020688;28;20450;-60
2023/09/17 08:36:50;;;;;;;5.57;4.47;;;25.70;62.60;;;;;;5012775;28;20064;-60
2023/09/17 08:39:16;;;;;;;7.32;3.90;;;26.00;62.30;;;;;;5020585;28;20037;-60
2023/09/17 08:41:42;;;;;;;6.75;4.20;;;26.30;62.10;;;;;;5017829;28;20033;-60
2023/09/17 08:44:08;;;;;;;5.18;4.57;;;26.10;60.90;;;;;;5012522;28;21169;-59
2023/09/17 08:46:36;;;;;;;6.32;4.80;;;26.10;59.20;;;;;;5010801;28;20026;-60
2023/09/17 08:49:01;;;;;;;4.68;4.25;;;25.70;60.80;;;;;;5014880;28;20596;-59
2023/09/17 08:51:30;;;;;;;5.30;3.92;;;25.70;61.40;;;;;;5015532;28;20033;-60
2023/09/17 08:53:59;;;;;;;5.43;4.35;;;25.80;61.20;;;;;;5015570;28;20125;-59
2023/09/17 08:56:26;;;;;;;6.03;3.70;;;25.90;58.80;;;;;;5021932;28;20164;-60
2023/09/17 08:58:55;;;;;;;5.38;4.18;;;25.80;61.00;;;;;;5020326;28;20084;-60
2023/09/17 09:01:24;;;;;;;4.47;3.97;;;25.90;59.20;;;;;;5020305;28;20028;-52
2023/09/17 09:03:52;;;;;;;4.57;4.00;;;26.00;60.00;;;;;;5013601;28;20623;-49
2023/09/17 09:06:19;;;;;;;6.18;4.60;;;26.10;60.90;;;;;;5016069;28;20034;-47
2023/09/17 09:08:46;;;;;;;4.70;4.10;;;26.20;59.50;;;;;;5016024;28;20030;-47
2023/09/17 09:11:12;;;;;;;4.13;3.33;;;26.40;60.30;;;;;;5017742;28;20033;-49
2023/09/17 09:13:38;;;;;;;3.90;3.50;;;26.70;60.20;;;;;;5019919;28;20096;-50
2023/09/17 09:16:04;;;;;;;4.57;3.70;;;26.80;59.50;;;;;;5015883;28;20035;-46
2023/09/17 09:18:30;;;;;;;4.80;3.75;;;26.90;58.90;;;;;;5015093;28;20022;-45
2023/09/17 09:20:55;;;;;;;4.43;4.00;;;27.30;58.20;;;;;;5017174;28;20118;-46
2023/09/17 09:23:22;;;;;;;5.28;3.72;;;27.40;57.60;;;;;;5019690;28;20037;-48
2023/09/17 09:25:48;;;;;;;4.78;3.40;;;27.50;57.30;;;;;;5016131;28;20570;-47
2023/09/17 09:28:13;;;;;;;4.38;3.97;;;27.40;56.40;;;;;;5018495;28;20026;-46
2023/09/17 09:30:41;;;;;;;3.55;3.00;;;27.50;56.60;;;;;;5012050;28;20104;-49
2023/09/17 09:33:07;;;;;;;5.70;3.30;;;27.70;55.60;;;;;;5014450;28;20671;-47
2023/09/17 09:35:32;;;;;;;3.83;3.00;;;27.80;55.10;;;;;;5016147;28;20037;-47
2023/09/17 09:38:01;;;;;;;3.60;3.20;;;27.90;53.80;;;;;;5022208;28;20036;-49
2023/09/17 09:40:27;;;;;;;3.75;3.45;;;27.80;53.50;;;;;;5013905;28;20445;-48
2023/09/17 09:42:52;;;;;;;3.15;2.70;;;28.00;53.50;;;;;;5015453;28;20025;-49
2023/09/17 09:45:18;;;;;;;3.95;3.28;;;28.20;53.10;;;;;;5015443;28;20148;-46
2023/09/17 09:47:48;;;;;;;4.00;3.63;;;28.20;51.60;;;;;;5016065;28;20045;-51
2023/09/17 09:50:21;;;;;;;3.85;3.45;;;28.20;52.00;;;;;;5019347;28;20040;-47
2023/09/17 09:52:48;;;;;;;4.50;3.33;;;28.30;52.10;;;;;;5011379;28;20105;-49
2023/09/17 09:55:13;;;;;;;4.97;3.35;;;28.40;51.00;;;;;;5015232;28;20037;-45
2023/09/17 09:57:39;;;;;;;4.97;3.75;;;28.40;51.30;;;;;;5015520;28;20030;-48
2023/09/17 10:00:07;;;;;;;3.95;3.15;;;28.60;50.80;;;;;;5014981;28;20103;-46
2023/09/17 10:02:33;;;;;;;3.30;3.00;;;28.70;49.80;;;;;;5016120;28;20048;-46
2023/09/17 10:04:59;;;;;;;4.10;2.88;;;28.90;49.40;;;;;;5009425;28;20414;-46
2023/09/17 10:07:25;;;;;;;3.47;3.00;;;29.00;49.00;;;;;;5014654;28;20018;-45
2023/09/17 10:09:50;;;;;;;3.78;3.25;;;29.20;47.50;;;;;;5012952;28;20044;-50
2023/09/17 10:12:16;;;;;;;4.40;3.17;;;28.90;47.90;;;;;;5013524;28;20041;-49
2023/09/17 10:14:42;;;;;;;3.28;2.97;;;28.60;45.90;;;;;;5003847;28;20389;-45
2023/09/17 10:17:10;;;;;;;3.47;3.17;;;28.20;45.90;;;;;;5017675;28;20032;-45
2023/09/17 10:19:37;;;;;;;3.25;2.47;;;28.20;45.70;;;;;;5013452;28;20028;-48
2023/09/17 10:22:07;;;;;;;3.28;2.97;;;28.30;45.50;;;;;;5016935;28;21703;-47
2023/09/17 10:24:36;;;;;;;4.20;3.30;;;28.10;45.30;;;;;;5007873;28;20049;-54
2023/09/17 10:27:03;;;;;;;3.92;3.53;;;27.80;46.60;;;;;;5015283;28;20499;-54
2023/09/17 10:29:30;;;;;;;3.83;3.35;;;27.60;46.60;;;;;;5013962;28;20034;-54
2023/09/17 10:31:58;;;;;;;3.92;3.30;;;27.70;46.20;;;;;;5013071;28;20033;-55
2023/09/17 10:34:26;;;;;;;3.38;3.08;;;27.80;45.80;;;;;;5013672;28;20117;-51
2023/09/17 10:36:54;;;;;;;4.88;3.95;;;27.80;45.60;;;;;;5014805;28;20029;-50
2023/09/17 10:39:21;;;;;;;6.28;3.55;;;27.40;45.40;;;;;;5020398;28;20109;-55
2023/09/17 10:41:48;;;;;;;3.53;3.22;;;27.00;46.00;;;;;;5016083;28;20111;-52
2023/09/17 10:44:15;;;;;;;3.80;3.50;;;26.80;46.00;;;;;;5019131;28;20033;-55
2023/09/17 10:46:45;;;;;;;5.68;3.40;;;26.70;46.40;;;;;;5017314;28;20029;-55
2023/09/17 10:49:11;;;;;;;3.42;3.13;;;26.70;45.80;;;;;;5017331;28;20454;-54
2023/09/17 10:51:39;;;;;;;3.30;3.00;;;26.80;45.60;;;;;;5010395;28;20026;-50
2023/09/17 10:54:05;;;;;;;3.72;3.10;;;26.90;45.90;;;;;;5012744;28;20596;-50
2023/09/17 10:56:31;;;;;;;3.22;2.92;;;27.10;45.80;;;;;;5013535;28;20021;-54
2023/09/17 10:58:59;;;;;;;4.55;3.88;;;27.10;45.40;;;;;;5011042;28;20159;-51
2023/09/17 11:01:29;;;;;;;3.60;3.25;;;27.10;45.20;;;;;;5013983;28;20032;-54
2023/09/17 11:04:00;;;;;;;3.80;3.50;;;27.00;45.30;;;;;;5012594;28;20496;-54
2023/09/17 11:06:27;;;;;;;4.90;3.58;;;26.90;45.40;;;;;;5011727;28;20029;-53
2023/09/17 11:08:55;;;;;;;5.38;3.80;;;26.90;46.10;;;;;;5015836;28;20029;-55
2023/09/17 11:11:24;;;;;;;4.28;3.53;;;26.90;46.10;;;;;;5017196;28;20033;-52
2023/09/17 11:13:51;;;;;;;5.70;3.92;;;26.90;46.40;;;;;;5010565;28;20083;-55
2023/09/17 11:16:23;;;;;;;3.65;3.35;;;26.90;45.30;;;;;;5012196;28;20030;-51
2023/09/17 11:19:12;;;;;;;4.35;3.67;;;26.80;44.70;;;;;;5016730;28;20087;-55
2023/09/17 11:21:49;;;;;;;6.05;3.10;;;26.70;43.50;;;;;;5013656;28;20026;-55
2023/09/17 11:24:17;;;;;;;4.25;3.55;;;26.70;43.90;;;;;;5010963;28;20022;-53
2023/09/17 11:26:45;;;;;;;4.47;2.88;;;26.70;43.90;;;;;;5012354;28;20037;-51
2023/09/17 11:29:11;;;;;;;5.10;3.35;;;26.70;44.00;;;;;;5009031;28;20478;-54
2023/09/17 11:32:00;;;;;;;3.53;3.03;;;26.70;43.40;;;;;;5016646;28;20033;-55
2023/09/17 11:34:26;;;;;;;4.80;3.30;;;26.70;44.00;;;;;;5013001;28;20088;-55
2023/09/17 11:36:52;;;;;;;4.40;3.85;;;26.70;44.70;;;;;;5018346;28;20034;-53
2023/09/17 11:39:21;;;;;;;4.50;3.63;;;26.80;45.10;;;;;;5014803;28;20579;-55
2023/09/17 11:41:52;;;;;;;5.25;3.75;;;26.80;45.30;;;;;;5015953;28;20032;-50
2023/09/17 11:44:19;;;;;;;3.88;3.25;;;26.90;45.20;;;;;;5018060;28;20360;-55
2023/09/17 11:46:45;;;;;;;3.42;3.13;;;26.90;45.40;;;;;;5014808;28;20021;-54
2023/09/17 11:49:11;;;;;;;3.67;3.20;;;26.90;45.40;;;;;;5017916;28;20552;-55
2023/09/17 11:51:43;;;;;;;4.35;3.95;;;26.80;45.70;;;;;;5016150;28;20025;-52
2023/09/17 11:54:15;;;;;;;3.85;3.45;;;26.90;46.00;;;;;;5018385;28;20099;-53
2023/09/17 11:56:47;;;;;;;4.70;3.75;;;26.90;46.00;;;;;;5014965;28;20025;-54
2023/09/17 11:59:15;;;;;;;4.22;3.65;;;26.90;44.30;;;;;;5016523;28;20093;-54
2023/09/17 12:01:46;;;;;;;6.72;4.20;;;26.80;44.50;;;;;;5017537;28;20021;-54
2023/09/17 12:04:12;;;;;;;5.05;3.67;;;26.80;44.50;;;;;;5018986;28;20025;-54
2023/09/17 12:06:39;;;;;;;4.25;3.72;;;26.80;44.60;;;;;;5017251;28;20028;-52
2023/09/17 12:09:15;;;;;;;5.35;3.60;;;26.70;44.20;;;;;;5017545;28;20533;-51
2023/09/17 12:11:42;;;;;;;5.85;3.13;;;26.60;44.10;;;;;;5013984;28;20030;-54
2023/09/17 12:14:08;;;;;;;3.63;3.30;;;26.60;44.40;;;;;;5011020;28;20057;-55
2023/09/17 12:16:34;;;;;;;3.42;3.10;;;26.70;44.80;;;;;;5019374;28;20083;-55
2023/09/17 12:19:00;;;;;;;4.45;3.25;;;26.80;44.70;;;;;;5013742;28;20350;-54
2023/09/17 12:21:27;;;;;;;3.78;3.08;;;26.80;44.40;;;;;;5019647;28;20025;-55
2023/09/17 12:24:07;;;;;;;3.40;3.10;;;26.80;44.20;;;;;;5014726;28;20477;-54
2023/09/17 12:26:54;;;;;;;3.03;2.72;;;26.90;44.30;;;;;;5020253;28;20029;-53
2023/09/17 12:29:21;;;;;;;3.60;3.00;;;26.90;43.90;;;;;;5017860;28;20038;-55
2023/09/17 12:31:46;;;;;;;3.38;3.08;;;26.90;44.00;;;;;;5017356;28;20041;-56
2023/09/17 12:34:12;;;;;;;4.40;3.03;;;26.90;44.00;;;;;;5017604;28;20037;-53
2023/09/17 12:36:38;;;;;;;5.63;2.80;;;26.90;43.90;;;;;;5017314;28;20496;-53
2023/09/17 12:39:04;;;;;;;2.78;2.53;;;26.90;43.80;;;;;;5014225;28;20040;-51
2023/09/17 12:41:29;;;;;;;2.70;2.50;;;26.90;43.40;;;;;;5019225;28;20025;-53
2023/09/17 12:43:55;;;;;;;4.70;2.88;;;26.90;43.40;;;;;;5014450;28;20379;-55